Time;durP1;ratioP1;P1;durP2;ratioP2;P2;SDS_P1;SDS_P2;PMS_P1;PMS_P2;Temp;Humidity;BMP_temperature;BMP_pressure;BME280_temperature;BME280_humidity;BME280_pressure;Samples;Min_cycle;Max_cycle;Signal;HPM_P1;HPM_P2
2022/03/16 00:02:25;;;;;;;43.58;28.50;;;;;;;;;;5012570;28;20061;-91
2022/03/16 00:04:52;;;;;;;47.83;27.48;;;;;;;;;;5012412;28;20383;-88
2022/03/16 00:07:18;;;;;;;43.10;27.80;;;;;;;;;;5012472;28;20485;-90
2022/03/16 00:09:45;;;;;;;42.40;28.50;;;;;;;;;;5012337;28;20401;-88
2022/03/16 00:12:11;;;;;;;43.28;27.00;;;;;;;;;;5012566;28;20081;-91
2022/03/16 00:14:38;;;;;;;38.00;23.85;;;;;;;;;;5012175;28;20042;-89
2022/03/16 00:17:04;;;;;;;36.50;24.48;;;;;;;;;;5012312;28;20524;-90
2022/03/16 00:19:31;;;;;;;38.33;24.55;;;;;;;;;;5012103;28;20046;-89
2022/03/16 00:21:58;;;;;;;43.92;23.42;;;;;;;;;;5012221;28;20050;-90
2022/03/16 00:24:24;;;;;;;76.55;25.90;;;;;;;;;;5013225;28;20042;-89
2022/03/16 00:26:50;;;;;;;35.97;21.98;;;;;;;;;;5012104;28;20048;-91
2022/03/16 00:29:16;;;;;;;30.73;21.20;;;;;;;;;;5011940;28;20045;-90
2022/03/16 00:31:42;;;;;;;43.35;20.95;;;;;;;;;;5012253;28;20402;-90
2022/03/16 00:34:08;;;;;;;43.03;19.23;;;;;;;;;;5011925;28;20131;-89
2022/03/16 00:36:34;;;;;;;46.95;19.65;;;;;;;;;;5011958;28;20041;-90
2022/03/16 00:39:00;;;;;;;42.33;18.92;;;;;;;;;;5013252;28;20485;-92
2022/03/16 00:41:26;;;;;;;77.85;18.77;;;;;;;;;;5012847;28;20049;-89
2022/03/16 00:43:53;;;;;;;127.10;20.92;;;;;;;;;;4995856;28;20042;-88
2022/03/16 00:46:19;;;;;;;30.20;17.42;;;;;;;;;;5013249;28;20121;-91
2022/03/16 00:48:45;;;;;;;42.15;18.77;;;;;;;;;;5011681;28;20041;-89
2022/03/16 00:51:12;;;;;;;72.65;20.15;;;;;;;;;;5012190;28;20566;-90
2022/03/16 00:53:39;;;;;;;98.20;20.17;;;;;;;;;;5011905;28;20100;-90
2022/03/16 00:56:06;;;;;;;253.38;25.92;;;;;;;;;;5012152;28;20048;-88
2022/03/16 00:58:32;;;;;;;272.20;24.38;;;;;;;;;;5011780;28;20529;-90
2022/03/16 01:00:58;;;;;;;391.38;29.52;;;;;;;;;;5011776;28;20042;-89
2022/03/16 01:03:24;;;;;;;72.70;21.95;;;;;;;;;;5012988;28;20128;-89
2022/03/16 01:05:50;;;;;;;120.20;24.45;;;;;;;;;;5011808;28;20070;-88
2022/03/16 01:08:16;;;;;;;51.97;24.02;;;;;;;;;;5011784;28;20432;-91
2022/03/16 01:10:42;;;;;;;35.33;23.73;;;;;;;;;;4995426;28;20054;-92
2022/03/16 01:13:08;;;;;;;39.05;24.95;;;;;;;;;;4995585;28;20046;-88
2022/03/16 01:15:34;;;;;;;44.38;26.63;;;;;;;;;;5011658;28;20400;-90
2022/03/16 01:18:01;;;;;;;41.88;26.55;;;;;;;;;;5011870;28;20041;-90
2022/03/16 01:20:27;;;;;;;45.15;26.70;;;;;;;;;;5011496;28;20049;-89
2022/03/16 01:22:53;;;;;;;48.95;28.95;;;;;;;;;;5012046;28;20042;-91
2022/03/16 01:25:19;;;;;;;50.38;29.25;;;;;;;;;;5011911;28;20081;-90
2022/03/16 01:27:45;;;;;;;49.50;29.73;;;;;;;;;;5012852;28;20080;-90
2022/03/16 01:30:13;;;;;;;55.00;29.02;;;;;;;;;;5011797;28;20058;-89
2022/03/16 01:32:39;;;;;;;44.63;26.17;;;;;;;;;;5011964;28;20402;-88
2022/03/16 01:35:06;;;;;;;45.30;26.23;;;;;;;;;;5011684;28;20042;-89
2022/03/16 01:37:32;;;;;;;46.33;28.50;;;;;;;;;;5012890;28;20600;-91
2022/03/16 01:39:58;;;;;;;46.13;27.23;;;;;;;;;;5011321;28;20120;-91
2022/03/16 01:42:25;;;;;;;47.05;27.30;;;;;;;;;;5011900;28;20045;-90
2022/03/16 01:44:51;;;;;;;48.13;27.25;;;;;;;;;;5012567;28;20037;-90
2022/03/16 01:47:18;;;;;;;55.20;30.00;;;;;;;;;;5011411;28;20369;-88
2022/03/16 01:49:45;;;;;;;50.08;28.38;;;;;;;;;;5015907;28;20052;-90
2022/03/16 01:52:12;;;;;;;39.38;24.67;;;;;;;;;;5014996;28;20173;-91
2022/03/16 01:54:41;;;;;;;36.40;22.33;;;;;;;;;;5015068;28;20069;-91
2022/03/16 01:57:11;;;;;;;34.70;21.73;;;;;;;;;;5014778;28;20042;-91
2022/03/16 01:59:37;;;;;;;36.72;23.38;;;;;;;;;;5014703;28;20104;-90
2022/03/16 02:02:04;;;;;;;35.33;23.05;;;;;;;;;;5015117;28;20077;-91
2022/03/16 02:04:30;;;;;;;35.42;21.50;;;;;;;;;;4998124;28;20128;-92
2022/03/16 02:06:56;;;;;;;34.47;22.33;;;;;;;;;;5016134;28;20081;-90
2022/03/16 02:09:22;;;;;;;36.35;22.67;;;;;;;;;;5014567;28;20457;-89
2022/03/16 02:11:48;;;;;;;34.88;20.35;;;;;;;;;;5014538;28;20049;-89
2022/03/16 02:14:14;;;;;;;35.65;22.38;;;;;;;;;;5014305;28;20112;-89
2022/03/16 02:16:40;;;;;;;32.97;21.45;;;;;;;;;;5015816;28;20069;-90
2022/03/16 02:19:06;;;;;;;35.15;21.75;;;;;;;;;;5015835;28;20045;-89
2022/03/16 02:21:35;;;;;;;32.35;20.95;;;;;;;;;;5014645;28;20049;-90
2022/03/16 02:24:01;;;;;;;36.35;22.58;;;;;;;;;;5014670;28;20375;-89
2022/03/16 02:26:27;;;;;;;32.25;20.25;;;;;;;;;;5014149;28;20100;-89
2022/03/16 02:28:54;;;;;;;36.53;20.25;;;;;;;;;;5014261;28;20042;-90
2022/03/16 02:31:20;;;;;;;163.70;24.33;;;;;;;;;;5014401;28;20046;-90
2022/03/16 02:33:46;;;;;;;135.38;23.50;;;;;;;;;;5014405;28;20046;-90
2022/03/16 02:36:12;;;;;;;113.25;24.83;;;;;;;;;;5014157;28;20064;-91
2022/03/16 02:38:39;;;;;;;123.07;22.88;;;;;;;;;;5014245;28;20050;-90
2022/03/16 02:41:05;;;;;;;85.88;22.73;;;;;;;;;;5014105;28;20050;-90
2022/03/16 02:43:31;;;;;;;107.30;23.10;;;;;;;;;;5014181;28;20125;-91
2022/03/16 02:45:57;;;;;;;31.85;18.92;;;;;;;;;;5013984;28;20042;-91
2022/03/16 02:48:23;;;;;;;23.70;17.02;;;;;;;;;;5015332;28;20053;-88
2022/03/16 02:50:49;;;;;;;27.15;18.73;;;;;;;;;;5013755;28;20046;-90
2022/03/16 02:53:16;;;;;;;120.53;20.45;;;;;;;;;;5014070;28;20489;-90
2022/03/16 02:55:44;;;;;;;113.40;22.90;;;;;;;;;;5013284;28;20118;-89
2022/03/16 02:58:10;;;;;;;185.20;26.38;;;;;;;;;;5013980;28;20494;-89
2022/03/16 03:00:36;;;;;;;123.55;24.02;;;;;;;;;;5013556;28;20038;-90
2022/03/16 03:03:02;;;;;;;259.50;30.60;;;;;;;;;;5013957;28;20104;-91
2022/03/16 03:05:28;;;;;;;128.75;25.42;;;;;;;;;;4997115;28;20069;-91
2022/03/16 03:07:54;;;;;;;36.60;21.15;;;;;;;;;;5013292;28;20136;-90
2022/03/16 03:10:20;;;;;;;46.92;21.30;;;;;;;;;;5013362;28;20065;-89
2022/03/16 03:12:46;;;;;;;34.80;21.58;;;;;;;;;;5015671;28;20045;-89
2022/03/16 03:15:14;;;;;;;35.75;22.40;;;;;;;;;;5014828;28;20441;-89
2022/03/16 03:17:40;;;;;;;34.53;21.65;;;;;;;;;;5014824;28;20037;-90
2022/03/16 03:20:07;;;;;;;34.13;21.30;;;;;;;;;;5013416;28;20045;-89
2022/03/16 03:22:33;;;;;;;41.13;22.50;;;;;;;;;;5013359;28;20033;-90
2022/03/16 03:24:59;;;;;;;171.23;28.08;;;;;;;;;;5013326;28;20042;-91
2022/03/16 03:27:25;;;;;;;76.95;24.42;;;;;;;;;;5013215;28;20097;-90
2022/03/16 03:29:51;;;;;;;82.72;25.25;;;;;;;;;;5013212;28;20065;-89
2022/03/16 03:32:17;;;;;;;159.38;25.20;;;;;;;;;;5013339;28;20038;-89
2022/03/16 03:34:46;;;;;;;97.65;22.85;;;;;;;;;;4997348;28;20238;-90
2022/03/16 03:37:13;;;;;;;69.30;19.83;;;;;;;;;;5014299;28;20042;-89
2022/03/16 03:39:39;;;;;;;115.68;19.83;;;;;;;;;;5013045;28;20069;-89
2022/03/16 03:42:06;;;;;;;29.55;16.92;;;;;;;;;;5012767;28;20460;-91
2022/03/16 03:44:31;;;;;;;27.10;17.25;;;;;;;;;;4996779;28;20053;-90
2022/03/16 03:46:59;;;;;;;68.95;17.55;;;;;;;;;;5012545;28;20407;-89
2022/03/16 03:49:24;;;;;;;41.63;16.30;;;;;;;;;;5012878;28;20050;-90
2022/03/16 03:51:50;;;;;;;141.18;22.83;;;;;;;;;;5012959;28;20048;-90
2022/03/16 03:54:16;;;;;;;297.02;26.92;;;;;;;;;;5013015;28;20073;-90
2022/03/16 03:56:42;;;;;;;215.38;23.23;;;;;;;;;;5012468;28;20038;-90
2022/03/16 03:59:08;;;;;;;275.05;25.40;;;;;;;;;;5012741;28;20536;-91
2022/03/16 04:01:34;;;;;;;151.95;21.20;;;;;;;;;;4996194;28;20480;-91
2022/03/16 04:04:00;;;;;;;236.95;22.50;;;;;;;;;;5012509;28;20052;-90
2022/03/16 04:06:26;;;;;;;164.20;21.85;;;;;;;;;;5012401;28;20045;-93
2022/03/16 04:08:52;;;;;;;231.38;23.25;;;;;;;;;;5013567;28;20045;-90
2022/03/16 04:11:19;;;;;;;351.98;26.95;;;;;;;;;;5011582;28;20456;-89
2022/03/16 04:13:45;;;;;;;248.20;25.77;;;;;;;;;;5013794;28;20050;-91
2022/03/16 04:16:11;;;;;;;259.83;24.70;;;;;;;;;;5012314;28;20096;-91
2022/03/16 04:18:37;;;;;;;165.02;21.20;;;;;;;;;;5012653;28;20110;-90
2022/03/16 04:21:03;;;;;;;65.68;19.42;;;;;;;;;;5012349;28;20449;-90
2022/03/16 04:23:29;;;;;;;92.75;22.27;;;;;;;;;;5012763;28;20072;-91
2022/03/16 04:25:54;;;;;;;164.88;26.00;;;;;;;;;;5012145;28;20132;-90
2022/03/16 04:28:20;;;;;;;160.48;26.98;;;;;;;;;;5013697;28;20397;-90
2022/03/16 04:30:46;;;;;;;341.52;33.63;;;;;;;;;;5013376;28;20045;-89
2022/03/16 04:33:12;;;;;;;161.98;26.52;;;;;;;;;;4995993;28;20038;-91
2022/03/16 04:35:38;;;;;;;41.45;22.25;;;;;;;;;;5013317;28;20073;-91
2022/03/16 04:38:04;;;;;;;63.38;24.15;;;;;;;;;;5012120;28;20065;-90
2022/03/16 04:40:30;;;;;;;55.88;24.92;;;;;;;;;;5013714;28;20397;-89
2022/03/16 04:42:57;;;;;;;33.80;21.20;;;;;;;;;;5013423;28;20037;-89
2022/03/16 04:45:23;;;;;;;36.08;21.73;;;;;;;;;;5012356;28;20505;-89
2022/03/16 04:47:49;;;;;;;37.08;22.25;;;;;;;;;;5011767;28;20041;-89
2022/03/16 04:50:15;;;;;;;38.35;23.75;;;;;;;;;;5012163;28;20038;-90
2022/03/16 04:52:44;;;;;;;41.90;24.63;;;;;;;;;;5011702;28;20048;-91
2022/03/16 04:55:10;;;;;;;43.13;24.88;;;;;;;;;;5011837;28;20038;-91
2022/03/16 04:57:36;;;;;;;64.47;22.88;;;;;;;;;;5012028;28;20140;-88
2022/03/16 05:00:03;;;;;;;62.42;22.52;;;;;;;;;;5013100;28;20164;-89
2022/03/16 05:02:29;;;;;;;54.35;23.15;;;;;;;;;;5011744;28;20071;-90
2022/03/16 05:04:55;;;;;;;149.88;22.85;;;;;;;;;;5011760;28;20049;-90
2022/03/16 05:07:21;;;;;;;83.35;20.02;;;;;;;;;;5012052;28;20053;-91
2022/03/16 05:09:47;;;;;;;57.15;18.15;;;;;;;;;;5011740;28;20046;-90
2022/03/16 05:12:13;;;;;;;93.80;19.65;;;;;;;;;;5012186;28;20049;-90
2022/03/16 05:14:39;;;;;;;35.35;17.73;;;;;;;;;;5011914;28;20046;-91
2022/03/16 05:17:05;;;;;;;28.55;18.33;;;;;;;;;;4995765;28;20053;-90
2022/03/16 05:19:31;;;;;;;86.13;20.77;;;;;;;;;;5012097;28;20060;-91
2022/03/16 05:21:57;;;;;;;88.28;20.45;;;;;;;;;;5011654;28;20128;-92
2022/03/16 05:24:24;;;;;;;115.40;21.80;;;;;;;;;;5015251;28;20527;-89
2022/03/16 05:26:50;;;;;;;121.03;20.42;;;;;;;;;;5015316;28;20053;-90
2022/03/16 05:29:17;;;;;;;82.65;19.75;;;;;;;;;;5016682;28;20121;-91
2022/03/16 05:31:43;;;;;;;50.60;19.33;;;;;;;;;;5016727;28;20125;-90
2022/03/16 05:34:09;;;;;;;50.95;19.08;;;;;;;;;;5015166;28;20039;-90
2022/03/16 05:36:35;;;;;;;106.63;20.85;;;;;;;;;;5015373;28;20096;-90
2022/03/16 05:39:01;;;;;;;182.20;25.80;;;;;;;;;;5015450;28;20104;-90
2022/03/16 05:41:27;;;;;;;296.85;28.17;;;;;;;;;;5015367;28;20045;-92
2022/03/16 05:43:53;;;;;;;255.82;24.15;;;;;;;;;;5016673;28;20473;-94
2022/03/16 05:46:19;;;;;;;109.22;19.70;;;;;;;;;;5015879;28;20034;-92
2022/03/16 05:48:45;;;;;;;77.68;17.05;;;;;;;;;;4998896;28;20041;-92
2022/03/16 05:51:11;;;;;;;30.60;15.65;;;;;;;;;;5015326;28;20053;-92
2022/03/16 05:53:37;;;;;;;157.95;20.23;;;;;;;;;;5015160;28;20104;-90
2022/03/16 05:56:03;;;;;;;93.70;17.83;;;;;;;;;;5015371;28;20050;-91
2022/03/16 05:58:29;;;;;;;159.90;20.13;;;;;;;;;;5015471;28;20049;-91
2022/03/16 06:00:55;;;;;;;145.73;20.25;;;;;;;;;;5015189;28;20077;-92
2022/03/16 06:03:21;;;;;;;92.70;17.23;;;;;;;;;;5015098;28;20049;-92
2022/03/16 06:05:47;;;;;;;92.63;18.42;;;;;;;;;;5015182;28;20416;-92
2022/03/16 06:08:13;;;;;;;130.65;20.35;;;;;;;;;;4998523;28;20117;-91
2022/03/16 06:10:39;;;;;;;136.52;21.23;;;;;;;;;;5015057;28;20046;-92
2022/03/16 06:13:06;;;;;;;68.55;18.98;;;;;;;;;;5014773;28;20498;-92
2022/03/16 06:15:38;;;;;;;81.13;19.98;;;;;;;;;;5015475;28;20040;-94
2022/03/16 06:18:03;;;;;;;103.10;20.60;;;;;;;;;;5015114;28;20069;-91
2022/03/16 06:20:30;;;;;;;218.75;26.77;;;;;;;;;;5016723;28;20481;-91
2022/03/16 06:22:56;;;;;;;227.30;27.27;;;;;;;;;;5014886;28;20050;-91
2022/03/16 06:25:24;;;;;;;171.38;25.02;;;;;;;;;;5022463;28;20045;-91
2022/03/16 06:27:50;;;;;;;92.05;24.65;;;;;;;;;;5034169;28;20451;-92
2022/03/16 06:30:16;;;;;;;52.08;24.00;;;;;;;;;;5035472;28;20065;-92
2022/03/16 06:32:45;;;;;;;49.85;25.38;;;;;;;;;;5034254;28;20408;-94
2022/03/16 06:35:12;;;;;;;50.42;26.92;;;;;;;;;;5035365;28;20508;-91
2022/03/16 06:37:38;;;;;;;52.47;27.63;;;;;;;;;;5034257;28;20154;-92
2022/03/16 06:40:05;;;;;;;62.15;29.15;;;;;;;;;;5034249;28;20073;-91
2022/03/16 06:42:31;;;;;;;53.05;27.88;;;;;;;;;;5033679;28;20293;-90
2022/03/16 06:44:57;;;;;;;60.10;29.33;;;;;;;;;;5033453;28;20041;-89
2022/03/16 06:47:23;;;;;;;60.10;29.55;;;;;;;;;;5033204;28;20120;-91
2022/03/16 06:49:49;;;;;;;53.42;29.70;;;;;;;;;;5033407;28;20128;-90
2022/03/16 06:52:15;;;;;;;56.33;29.58;;;;;;;;;;5034658;28;20068;-91
2022/03/16 06:54:41;;;;;;;58.42;29.73;;;;;;;;;;5033382;28;20471;-91
2022/03/16 06:57:07;;;;;;;56.38;30.85;;;;;;;;;;5033620;28;20095;-91
2022/03/16 06:59:33;;;;;;;56.63;30.05;;;;;;;;;;5016837;28;20053;-90
2022/03/16 07:01:59;;;;;;;53.95;29.63;;;;;;;;;;5033333;28;20052;-90
2022/03/16 07:04:24;;;;;;;49.22;29.70;;;;;;;;;;5033273;28;20041;-89
2022/03/16 07:06:51;;;;;;;52.03;30.85;;;;;;;;;;5034337;28;20511;-90
2022/03/16 07:09:17;;;;;;;51.30;30.08;;;;;;;;;;5032883;28;20101;-89
2022/03/16 07:11:43;;;;;;;52.70;28.58;;;;;;;;;;5032872;28;20068;-89
2022/03/16 07:16:53;;;;;;;50.80;27.90;;;;;;;;;;5032866;28;20046;-91
2022/03/16 07:19:19;;;;;;;49.08;28.52;;;;;;;;;;5032694;28;20049;-91
2022/03/16 07:21:45;;;;;;;40.58;25.40;;;;;;;;;;5032999;28;20511;-90
2022/03/16 07:24:11;;;;;;;48.25;27.27;;;;;;;;;;5033796;28;20037;-91
2022/03/16 07:26:38;;;;;;;42.80;26.13;;;;;;;;;;5032450;28;20450;-89
2022/03/16 07:29:05;;;;;;;40.05;26.58;;;;;;;;;;5032752;28;20142;-89
2022/03/16 07:31:31;;;;;;;42.22;25.55;;;;;;;;;;5034037;28;20121;-90
2022/03/16 07:33:57;;;;;;;46.13;26.60;;;;;;;;;;5032420;28;20468;-90
2022/03/16 07:36:23;;;;;;;49.65;27.23;;;;;;;;;;5016044;28;20045;-91
2022/03/16 07:38:49;;;;;;;52.22;29.63;;;;;;;;;;5032488;28;20393;-90
2022/03/16 07:41:15;;;;;;;51.42;29.10;;;;;;;;;;5015844;28;20045;-91
2022/03/16 07:43:41;;;;;;;55.53;30.77;;;;;;;;;;5033199;28;20046;-91
2022/03/16 07:46:08;;;;;;;57.00;31.27;;;;;;;;;;5031535;28;20438;-89
2022/03/16 07:48:35;;;;;;;55.75;30.83;;;;;;;;;;5032339;28;20048;-90
2022/03/16 07:51:02;;;;;;;52.92;30.73;;;;;;;;;;5032772;28;20049;-90
2022/03/16 07:53:28;;;;;;;61.63;33.28;;;;;;;;;;5015073;28;20049;-90
2022/03/16 07:55:56;;;;;;;57.72;32.17;;;;;;;;;;5031999;28;20045;-90
2022/03/16 07:58:22;;;;;;;57.13;33.20;;;;;;;;;;5031767;28;20060;-91
2022/03/16 08:00:48;;;;;;;60.72;32.72;;;;;;;;;;5031856;28;20044;-92
2022/03/16 08:03:14;;;;;;;56.63;32.72;;;;;;;;;;5033147;28;20048;-91
2022/03/16 08:05:40;;;;;;;56.63;31.38;;;;;;;;;;5031976;28;20041;-90
2022/03/16 08:08:06;;;;;;;55.78;33.25;;;;;;;;;;5032124;28;20042;-90
2022/03/16 08:10:32;;;;;;;52.75;32.35;;;;;;;;;;5032001;28;20516;-91
2022/03/16 08:12:58;;;;;;;52.28;31.95;;;;;;;;;;5033145;28;20056;-92
2022/03/16 08:15:24;;;;;;;59.33;32.85;;;;;;;;;;5031839;28;20117;-91
2022/03/16 08:17:50;;;;;;;51.80;30.75;;;;;;;;;;5031559;28;20072;-91
2022/03/16 08:20:16;;;;;;;53.60;31.20;;;;;;;;;;5031359;28;20075;-92
2022/03/16 08:22:42;;;;;;;60.45;32.40;;;;;;;;;;5031742;28;20037;-90
2022/03/16 08:25:10;;;;;;;48.47;29.23;;;;;;;;;;5032792;28;20083;-91
2022/03/16 08:27:37;;;;;;;54.05;32.35;;;;;;;;;;5015308;28;20047;-89
2022/03/16 08:30:03;;;;;;;51.05;31.95;;;;;;;;;;5032658;28;20048;-90
2022/03/16 08:32:29;;;;;;;48.78;30.63;;;;;;;;;;5031751;28;20436;-91
2022/03/16 08:34:55;;;;;;;47.30;30.38;;;;;;;;;;5031683;28;20126;-92
2022/03/16 08:37:21;;;;;;;51.10;31.58;;;;;;;;;;5031839;28;20057;-91
2022/03/16 08:39:48;;;;;;;51.90;31.30;;;;;;;;;;5028733;28;20401;-92
2022/03/16 08:42:14;;;;;;;45.90;30.48;;;;;;;;;;5030740;28;20485;-91
2022/03/16 08:44:42;;;;;;;45.90;29.38;;;;;;;;;;5031635;28;20397;-90
2022/03/16 08:47:08;;;;;;;41.35;27.65;;;;;;;;;;5029686;28;20073;-89
2022/03/16 08:49:34;;;;;;;38.13;25.95;;;;;;;;;;5014689;28;20397;-90
2022/03/16 08:52:01;;;;;;;43.90;28.70;;;;;;;;;;5032668;28;20069;-90
2022/03/16 08:54:28;;;;;;;39.53;25.90;;;;;;;;;;5031081;28;20374;-91
2022/03/16 08:56:54;;;;;;;36.60;25.30;;;;;;;;;;5032245;28;20401;-91
2022/03/16 08:59:20;;;;;;;36.78;25.33;;;;;;;;;;5035616;28;20045;-91
2022/03/16 09:01:46;;;;;;;34.70;24.58;;;;;;;;;;5035334;28;20046;-91
2022/03/16 09:04:12;;;;;;;34.38;23.88;;;;;;;;;;5035241;28;20051;-92
2022/03/16 09:06:38;;;;;;;34.60;24.55;;;;;;;;;;5036078;28;20366;-90
2022/03/16 09:09:04;;;;;;;34.28;23.55;;;;;;;;;;5036735;28;20376;-89
2022/03/16 09:11:32;;;;;;;36.25;24.05;;;;;;;;;;5013331;28;20588;-90
2022/03/16 09:13:58;;;;;;;30.92;23.50;;;;;;;;;;5015291;28;20053;-89
2022/03/16 09:16:23;;;;;;;33.03;23.90;;;;;;;;;;5015537;28;20037;-91
2022/03/16 09:18:51;;;;;;;33.05;23.23;;;;;;;;;;5015428;28;20103;-91
2022/03/16 09:21:17;;;;;;;28.42;22.02;;;;;;;;;;5015378;28;20645;-90
2022/03/16 09:23:43;;;;;;;34.13;24.02;;;;;;;;;;5015085;28;20405;-88
2022/03/16 09:26:09;;;;;;;33.10;22.73;;;;;;;;;;5016549;28;20038;-89
2022/03/16 09:28:35;;;;;;;30.17;21.90;;;;;;;;;;4998515;28;20432;-87
2022/03/16 09:31:01;;;;;;;31.70;22.75;;;;;;;;;;5015010;28;20149;-90
2022/03/16 09:33:30;;;;;;;33.33;24.02;;;;;;;;;;5016272;28;20481;-89
2022/03/16 09:35:56;;;;;;;32.55;22.48;;;;;;;;;;5015064;28;20214;-88
2022/03/16 09:38:22;;;;;;;31.92;22.02;;;;;;;;;;5017349;28;20050;-91
2022/03/16 09:40:53;;;;;;;32.45;22.38;;;;;;;;;;5015519;28;20099;-89
2022/03/16 09:43:20;;;;;;;29.65;22.08;;;;;;;;;;5015097;28;20493;-89
2022/03/16 09:46:05;;;;;;;28.38;21.35;;;;;;;;;;5015893;28;20092;-89
2022/03/16 09:48:32;;;;;;;27.58;20.77;;;;;;;;;;5014823;28;20045;-87
2022/03/16 09:50:58;;;;;;;27.05;19.50;;;;;;;;;;5014929;28;20104;-88
2022/03/16 09:53:26;;;;;;;28.52;19.25;;;;;;;;;;5016094;28;20080;-89
2022/03/16 09:55:53;;;;;;;25.42;18.90;;;;;;;;;;5015987;28;20038;-90
2022/03/16 09:58:22;;;;;;;28.20;19.63;;;;;;;;;;5015034;28;20100;-89
2022/03/16 10:00:48;;;;;;;25.95;19.02;;;;;;;;;;5015744;28;20111;-89
2022/03/16 10:03:15;;;;;;;25.80;17.40;;;;;;;;;;5014947;28;20486;-88
2022/03/16 10:05:41;;;;;;;26.33;19.35;;;;;;;;;;5014738;28;20049;-88
2022/03/16 10:08:08;;;;;;;26.92;19.42;;;;;;;;;;5014223;28;20046;-87
2022/03/16 10:13:23;;;;;;;21.23;16.08;;;;;;;;;;5015726;28;20063;-87
2022/03/16 10:15:50;;;;;;;25.52;17.48;;;;;;;;;;5024008;28;20037;-87
2022/03/16 10:18:17;;;;;;;25.85;16.85;;;;;;;;;;5034067;28;20056;-87
2022/03/16 10:20:43;;;;;;;24.23;16.30;;;;;;;;;;5032475;28;20056;-88
2022/03/16 10:23:13;;;;;;;22.73;16.52;;;;;;;;;;5033990;28;20052;-88
2022/03/16 10:25:45;;;;;;;25.33;16.73;;;;;;;;;;5032742;28;20041;-87
2022/03/16 10:28:11;;;;;;;17.10;12.55;;;;;;;;;;5035310;28;20045;-87
2022/03/16 10:30:37;;;;;;;24.95;15.32;;;;;;;;;;5032777;28;20124;-88
2022/03/16 10:33:04;;;;;;;19.45;13.00;;;;;;;;;;5033976;28;20060;-87
2022/03/16 10:35:30;;;;;;;17.25;11.10;;;;;;;;;;5034838;28;20037;-88
2022/03/16 10:38:10;;;;;;;19.80;12.25;;;;;;;;;;5034979;28;20485;-88
2022/03/16 10:40:36;;;;;;;18.00;12.02;;;;;;;;;;5034625;28;20465;-87
2022/03/16 10:48:56;;;;;;;18.05;12.95;;;;;;;;;;5034883;28;20042;-88
2022/03/16 10:51:22;;;;;;;21.20;14.00;;;;;;;;;;5016803;28;20102;-89
2022/03/16 10:53:50;;;;;;;21.40;13.93;;;;;;;;;;5033555;28;20090;-87
2022/03/16 10:56:17;;;;;;;19.67;13.15;;;;;;;;;;5034671;28;20041;-87
2022/03/16 10:58:43;;;;;;;18.73;13.13;;;;;;;;;;5033451;28;20189;-87
2022/03/16 11:01:09;;;;;;;19.85;13.82;;;;;;;;;;5032982;28;20048;-88
2022/03/16 11:03:36;;;;;;;20.00;14.45;;;;;;;;;;5016953;28;20049;-87
2022/03/16 11:06:03;;;;;;;20.45;14.75;;;;;;;;;;5032859;28;20049;-87
2022/03/16 11:08:34;;;;;;;19.65;13.38;;;;;;;;;;5016715;28;20049;-87
2022/03/16 11:13:27;;;;;;;20.02;13.38;;;;;;;;;;5034085;28;20053;-86
2022/03/16 11:13:49;;;;;;;22.08;14.23;;;;;;;;;;5032909;28;20128;-88
2022/03/16 11:16:20;;;;;;;22.90;13.82;;;;;;;;;;5034207;28;20076;-88
2022/03/16 11:18:48;;;;;;;22.45;15.20;;;;;;;;;;5033355;28;20053;-89
2022/03/16 11:21:15;;;;;;;22.35;15.18;;;;;;;;;;5031654;28;20045;-87
2022/03/16 11:26:48;;;;;;;20.98;14.27;;;;;;;;;;5033734;28;20041;-86
2022/03/16 11:29:34;;;;;;;20.95;14.27;;;;;;;;;;5032701;28;20047;-88
2022/03/16 11:32:10;;;;;;;22.40;14.13;;;;;;;;;;5032636;28;20049;-87
2022/03/16 11:34:36;;;;;;;22.35;13.55;;;;;;;;;;5033895;28;20044;-88
2022/03/16 11:37:04;;;;;;;19.67;13.05;;;;;;;;;;5032426;28;20045;-87
2022/03/16 11:39:40;;;;;;;20.75;13.70;;;;;;;;;;5032850;28;20056;-88
2022/03/16 11:42:07;;;;;;;22.63;13.82;;;;;;;;;;5033982;28;20049;-87
2022/03/16 11:44:34;;;;;;;19.17;12.43;;;;;;;;;;5030391;28;20064;-87
2022/03/16 11:47:09;;;;;;;18.15;12.80;;;;;;;;;;5012251;28;20054;-89
2022/03/16 11:49:36;;;;;;;18.48;12.90;;;;;;;;;;5012519;28;20078;-86
2022/03/16 11:52:03;;;;;;;20.05;12.43;;;;;;;;;;5012615;28;20046;-87
2022/03/16 11:54:40;;;;;;;20.10;12.00;;;;;;;;;;5012530;28;20077;-88
2022/03/16 11:57:06;;;;;;;19.13;12.85;;;;;;;;;;5012961;28;20038;-87
2022/03/16 11:59:33;;;;;;;20.05;12.98;;;;;;;;;;5012477;28;20104;-87
2022/03/16 12:02:10;;;;;;;20.08;12.75;;;;;;;;;;5013492;28;20041;-88
2022/03/16 12:04:38;;;;;;;26.98;13.75;;;;;;;;;;5021379;28;20419;-88
2022/03/16 12:07:09;;;;;;;21.73;13.35;;;;;;;;;;5036404;28;20071;-87
2022/03/16 12:09:41;;;;;;;22.30;13.38;;;;;;;;;;5031430;28;20056;-88
2022/03/16 12:15:09;;;;;;;24.08;13.20;;;;;;;;;;5032158;28;20041;-87
2022/03/16 12:17:36;;;;;;;19.38;12.52;;;;;;;;;;5033261;28;20042;-89
2022/03/16 12:20:11;;;;;;;20.90;12.57;;;;;;;;;;5031069;28;20503;-88
2022/03/16 12:22:38;;;;;;;19.27;12.38;;;;;;;;;;5033251;28;20037;-87
2022/03/16 12:25:25;;;;;;;22.27;13.80;;;;;;;;;;5013758;28;20041;-88
2022/03/16 12:30:37;;;;;;;;;;;;;;;;;;5012690;28;20038;-89
2022/03/16 12:33:04;;;;;;;18.73;12.38;;;;;;;;;;5026718;28;19917;-88
2022/03/16 12:35:34;;;;;;;18.98;12.93;;;;;;;;;;5031820;28;20037;-89
2022/03/16 12:38:01;;;;;;;20.23;13.23;;;;;;;;;;5031881;28;20045;-87
2022/03/16 12:40:29;;;;;;;19.67;13.48;;;;;;;;;;5031729;28;20041;-88
2022/03/16 12:42:56;;;;;;;18.80;11.70;;;;;;;;;;5031109;28;20052;-87
2022/03/16 12:45:25;;;;;;;19.60;12.60;;;;;;;;;;5031799;28;20065;-89
2022/03/16 12:48:13;;;;;;;19.58;12.23;;;;;;;;;;5014970;28;20052;-88
2022/03/16 12:50:47;;;;;;;21.55;13.48;;;;;;;;;;5014862;28;20041;-87
2022/03/16 12:53:13;;;;;;;17.40;11.82;;;;;;;;;;5031563;28;20393;-89
2022/03/16 12:55:55;;;;;;;18.77;12.48;;;;;;;;;;5032504;28;20045;-88
2022/03/16 12:58:26;;;;;;;19.58;12.70;;;;;;;;;;5033048;28;20044;-88
2022/03/16 13:00:58;;;;;;;19.45;11.82;;;;;;;;;;5032704;28;20072;-88
2022/03/16 13:03:24;;;;;;;18.10;12.20;;;;;;;;;;5031438;28;20056;-88
2022/03/16 13:05:52;;;;;;;19.05;12.50;;;;;;;;;;5032573;28;20041;-88
2022/03/16 13:08:18;;;;;;;20.75;13.38;;;;;;;;;;5031163;28;20510;-88
2022/03/16 13:13:29;;;;;;;19.77;12.48;;;;;;;;;;5032526;28;20042;-88
2022/03/16 13:16:00;;;;;;;19.75;12.65;;;;;;;;;;5023902;28;20045;-87
2022/03/16 13:18:30;;;;;;;17.35;11.82;;;;;;;;;;5012037;28;20053;-88
2022/03/16 13:20:56;;;;;;;21.50;12.38;;;;;;;;;;5012409;28;20531;-88
2022/03/16 13:23:32;;;;;;;18.10;11.10;;;;;;;;;;5012700;28;20044;-87
2022/03/16 13:25:57;;;;;;;;;;;;;;;;;;5028730;28;20435;-90
2022/03/16 13:28:23;;;;;;;18.95;11.10;;;;;;;;;;5032681;28;19921;-89
2022/03/16 13:30:49;;;;;;;19.27;12.32;;;;;;;;;;5031231;28;20048;-88
2022/03/16 13:33:16;;;;;;;17.33;12.05;;;;;;;;;;5014591;28;20088;-89
2022/03/16 13:35:43;;;;;;;16.42;11.23;;;;;;;;;;5032633;28;20049;-89
2022/03/16 13:38:09;;;;;;;20.48;12.07;;;;;;;;;;5032360;28;20045;-88
2022/03/16 13:40:38;;;;;;;19.15;13.63;;;;;;;;;;5031153;28;20104;-89
2022/03/16 13:43:05;;;;;;;18.55;11.85;;;;;;;;;;5031010;28;20077;-89
2022/03/16 13:45:38;;;;;;;19.52;12.20;;;;;;;;;;5034174;28;20047;-88
2022/03/16 13:48:06;;;;;;;24.23;13.38;;;;;;;;;;5034390;28;20088;-88
2022/03/16 13:50:32;;;;;;;21.13;13.25;;;;;;;;;;5034894;28;20541;-87
2022/03/16 13:53:11;;;;;;;20.50;13.25;;;;;;;;;;5034313;28;20053;-87
2022/03/16 13:55:37;;;;;;;23.05;14.95;;;;;;;;;;5035029;28;20093;-87
2022/03/16 13:58:10;;;;;;;20.83;13.80;;;;;;;;;;5035720;28;20096;-87
2022/03/16 14:00:44;;;;;;;22.38;14.45;;;;;;;;;;5034602;28;20063;-88
2022/03/16 14:03:11;;;;;;;23.70;13.82;;;;;;;;;;5039355;28;20046;-88
2022/03/16 14:05:39;;;;;;;21.73;14.63;;;;;;;;;;5034558;28;20084;-88
2022/03/16 14:08:09;;;;;;;21.58;15.18;;;;;;;;;;5035618;28;20048;-87
2022/03/16 14:10:35;;;;;;;23.00;15.00;;;;;;;;;;5034267;28;20053;-88
2022/03/16 14:13:03;;;;;;;24.20;15.30;;;;;;;;;;5035293;28;20049;-87
2022/03/16 14:15:29;;;;;;;27.67;16.17;;;;;;;;;;5032910;28;20037;-88
2022/03/16 14:17:58;;;;;;;22.75;15.32;;;;;;;;;;5035086;28;20045;-87
2022/03/16 14:20:27;;;;;;;24.00;15.38;;;;;;;;;;5035238;28;20507;-87
2022/03/16 14:22:53;;;;;;;22.33;15.32;;;;;;;;;;5033709;28;20045;-88
2022/03/16 14:25:21;;;;;;;24.23;16.20;;;;;;;;;;5033910;28;20038;-88
2022/03/16 14:27:48;;;;;;;24.48;15.05;;;;;;;;;;5033548;28;20073;-88
2022/03/16 14:30:16;;;;;;;25.00;16.50;;;;;;;;;;5034106;28;20041;-88
2022/03/16 14:32:42;;;;;;;26.98;16.55;;;;;;;;;;5033659;28;20492;-89
2022/03/16 14:35:08;;;;;;;24.45;15.52;;;;;;;;;;5033775;28;20041;-90
2022/03/16 14:37:34;;;;;;;25.13;16.85;;;;;;;;;;5033583;28;20072;-89
2022/03/16 14:40:00;;;;;;;26.67;16.58;;;;;;;;;;5034973;28;20076;-89